sensor_id;sensor_type;location;lat;lon;timestamp;pressure;altitude;pressure_sealevel;temperature;humidity
18509;BME280;9383;50.928;12.116;2022-09-29T00:00:53;97194.47;;;4.99;100.00
18509;BME280;9383;50.928;12.116;2022-09-29T00:03:21;97324.84;;;5.87;100.00
18509;BME280;9383;50.928;12.116;2022-09-29T00:05:57;97174.75;;;4.88;100.00
18509;BME280;9383;50.928;12.116;2022-09-29T00:08:27;97259.97;;;5.46;100.00
18509;BME280;9383;50.928;12.116;2022-09-29T00:11:00;97208.63;;;5.17;100.00
18509;BME280;9383;50.928;12.116;2022-09-29T00:13:27;97325.56;;;5.91;100.00
18509;BME280;9383;50.928;12.116;2022-09-29T00:16:04;97205.44;;;5.09;100.00
18509;BME280;9383;50.928;12.116;2022-09-29T00:18:33;97218.38;;;5.13;100.00
18509;BME280;9383;50.928;12.116;2022-09-29T00:21:08;97255.81;;;5.41;100.00
18509;BME280;9383;50.928;12.116;2022-09-29T00:23:41;97326.78;;;5.84;100.00
18509;BME280;9383;50.928;12.116;2022-09-29T00:26:36;97313.34;;;5.69;100.00
18509;BME280;9383;50.928;12.116;2022-09-29T00:29:04;97226.31;;;5.12;100.00
18509;BME280;9383;50.928;12.116;2022-09-29T00:31:35;97264.63;;;5.40;100.00
18509;BME280;9383;50.928;12.116;2022-09-29T00:34:02;97347.72;;;5.85;100.00
18509;BME280;9383;50.928;12.116;2022-09-29T00:36:30;97236.91;;;5.10;100.00
18509;BME280;9383;50.928;12.116;2022-09-29T00:39:03;97260.66;;;5.29;100.00
18509;BME280;9383;50.928;12.116;2022-09-29T00:41:35;97294.13;;;5.46;100.00
18509;BME280;9383;50.928;12.116;2022-09-29T00:49:25;97228.72;;;4.96;100.00
18509;BME280;9383;50.928;12.116;2022-09-29T00:52:24;97352.84;;;5.68;100.00
18509;BME280;9383;50.928;12.116;2022-09-29T00:55:22;97353.81;;;5.65;100.00
18509;BME280;9383;50.928;12.116;2022-09-29T00:58:05;97344.34;;;5.61;100.00
18509;BME280;9383;50.928;12.116;2022-09-29T01:00:33;97280.59;;;5.13;100.00
18509;BME280;9383;50.928;12.116;2022-09-29T01:03:12;97292.63;;;5.18;100.00
18509;BME280;9383;50.928;12.116;2022-09-29T01:05:54;97310.78;;;5.23;100.00
18509;BME280;9383;50.928;12.116;2022-09-29T01:08:40;97353.78;;;5.44;100.00
18509;BME280;9383;50.928;12.116;2022-09-29T01:11:15;97266.63;;;4.88;100.00
18509;BME280;9383;50.928;12.116;2022-09-29T01:13:47;97245.44;;;4.71;100.00
18509;BME280;9383;50.928;12.116;2022-09-29T01:16:16;97353.03;;;5.41;100.00
18509;BME280;9383;50.928;12.116;2022-09-29T01:18:46;97342.09;;;5.29;100.00
18509;BME280;9383;50.928;12.116;2022-09-29T01:21:49;97364.50;;;5.38;100.00
18509;BME280;9383;50.928;12.116;2022-09-29T01:28:09;97253.19;;;4.74;100.00
18509;BME280;9383;50.928;12.116;2022-09-29T01:36:57;97315.22;;;5.00;100.00
18509;BME280;9383;50.928;12.116;2022-09-29T01:39:58;97279.66;;;4.68;100.00
18509;BME280;9383;50.928;12.116;2022-09-29T01:43:09;97366.97;;;5.20;100.00
18509;BME280;9383;50.928;12.116;2022-09-29T01:46:15;97369.94;;;5.11;100.00
18509;BME280;9383;50.928;12.116;2022-09-29T01:49:05;97343.56;;;4.90;100.00
18509;BME280;9383;50.928;12.116;2022-09-29T01:52:08;97281.75;;;4.59;100.00
18509;BME280;9383;50.928;12.116;2022-09-29T01:55:01;97295.66;;;4.61;100.00
18509;BME280;9383;50.928;12.116;2022-09-29T01:57:52;97351.91;;;5.02;100.00
18509;BME280;9383;50.928;12.116;2022-09-29T02:00:21;97285.94;;;4.63;100.00
18509;BME280;9383;50.928;12.116;2022-09-29T02:03:17;97361.31;;;5.07;100.00
18509;BME280;9383;50.928;12.116;2022-09-29T02:06:02;97371.81;;;5.07;100.00
18509;BME280;9383;50.928;12.116;2022-09-29T02:08:48;97354.78;;;4.96;100.00
18509;BME280;9383;50.928;12.116;2022-09-29T02:11:16;97281.41;;;4.45;100.00
18509;BME280;9383;50.928;12.116;2022-09-29T02:13:56;97336.72;;;4.86;100.00
18509;BME280;9383;50.928;12.116;2022-09-29T02:16:29;97311.41;;;4.61;100.00
18509;BME280;9383;50.928;12.116;2022-09-29T02:19:04;97314.69;;;4.67;100.00
18509;BME280;9383;50.928;12.116;2022-09-29T02:21:32;97308.81;;;4.60;100.00
18509;BME280;9383;50.928;12.116;2022-09-29T02:23:59;97272.16;;;4.34;100.00
18509;BME280;9383;50.928;12.116;2022-09-29T02:26:31;97379.06;;;5.01;100.00
18509;BME280;9383;50.928;12.116;2022-09-29T02:29:03;97354.53;;;4.78;100.00
18509;BME280;9383;50.928;12.116;2022-09-29T02:31:32;97386.16;;;4.99;100.00
18509;BME280;9383;50.928;12.116;2022-09-29T02:34:03;97257.00;;;4.19;100.00
18509;BME280;9383;50.928;12.116;2022-09-29T02:43:12;97389.00;;;4.92;100.00
18509;BME280;9383;50.928;12.116;2022-09-29T02:49:42;97388.91;;;4.96;100.00
18509;BME280;9383;50.928;12.116;2022-09-29T02:52:10;97382.78;;;4.95;100.00
18509;BME280;9383;50.928;12.116;2022-09-29T02:55:13;97282.97;;;4.25;100.00
18509;BME280;9383;50.928;12.116;2022-09-29T03:00:17;97358.81;;;4.81;100.00
18509;BME280;9383;50.928;12.116;2022-09-29T03:02:45;97387.91;;;4.98;100.00
18509;BME280;9383;50.928;12.116;2022-09-29T03:05:17;97390.50;;;5.00;100.00
18509;BME280;9383;50.928;12.116;2022-09-29T03:07:44;97286.13;;;4.35;100.00
18509;BME280;9383;50.928;12.116;2022-09-29T03:10:14;97389.56;;;5.01;100.00
18509;BME280;9383;50.928;12.116;2022-09-29T03:12:41;97381.69;;;5.01;100.00
18509;BME280;9383;50.928;12.116;2022-09-29T03:15:09;97293.59;;;4.46;100.00
18509;BME280;9383;50.928;12.116;2022-09-29T03:17:38;97328.44;;;4.73;100.00
18509;BME280;9383;50.928;12.116;2022-09-29T03:20:06;97332.16;;;4.68;100.00
18509;BME280;9383;50.928;12.116;2022-09-29T03:22:33;97319.09;;;4.66;100.00
18509;BME280;9383;50.928;12.116;2022-09-29T03:25:00;97378.94;;;5.04;100.00
18509;BME280;9383;50.928;12.116;2022-09-29T03:27:26;97322.66;;;4.65;100.00
18509;BME280;9383;50.928;12.116;2022-09-29T03:29:52;97270.34;;;4.36;100.00
18509;BME280;9383;50.928;12.116;2022-09-29T03:32:18;97246.25;;;4.25;100.00
18509;BME280;9383;50.928;12.116;2022-09-29T03:34:44;97376.22;;;5.07;100.00
18509;BME280;9383;50.928;12.116;2022-09-29T03:37:14;97292.63;;;4.48;100.00
18509;BME280;9383;50.928;12.116;2022-09-29T03:39:40;97312.19;;;4.63;100.00
18509;BME280;9383;50.928;12.116;2022-09-29T03:42:06;97271.28;;;4.34;100.00
18509;BME280;9383;50.928;12.116;2022-09-29T03:44:33;97306.16;;;4.61;100.00
18509;BME280;9383;50.928;12.116;2022-09-29T03:47:00;97386.47;;;5.13;100.00
18509;BME280;9383;50.928;12.116;2022-09-29T03:49:27;97384.66;;;5.15;100.00
18509;BME280;9383;50.928;12.116;2022-09-29T03:51:53;97262.63;;;4.32;100.00
18509;BME280;9383;50.928;12.116;2022-09-29T03:54:19;97395.06;;;5.18;100.00
18509;BME280;9383;50.928;12.116;2022-09-29T03:56:46;97310.44;;;4.64;100.00
18509;BME280;9383;50.928;12.116;2022-09-29T03:59:12;97324.06;;;4.74;100.00
18509;BME280;9383;50.928;12.116;2022-09-29T04:01:39;97292.53;;;4.52;100.00
18509;BME280;9383;50.928;12.116;2022-09-29T04:04:08;97358.97;;;5.00;100.00
18509;BME280;9383;50.928;12.116;2022-09-29T04:06:34;97316.31;;;4.71;100.00
18509;BME280;9383;50.928;12.116;2022-09-29T04:09:01;97341.00;;;4.89;100.00
18509;BME280;9383;50.928;12.116;2022-09-29T04:11:28;97346.03;;;4.95;100.00
18509;BME280;9383;50.928;12.116;2022-09-29T04:13:54;97301.34;;;4.73;100.00
18509;BME280;9383;50.928;12.116;2022-09-29T04:16:21;97363.81;;;5.11;100.00
18509;BME280;9383;50.928;12.116;2022-09-29T04:18:47;97307.56;;;4.70;100.00
18509;BME280;9383;50.928;12.116;2022-09-29T04:21:13;97299.88;;;4.65;100.00
18509;BME280;9383;50.928;12.116;2022-09-29T04:23:40;97413.47;;;5.41;100.00
18509;BME280;9383;50.928;12.116;2022-09-29T04:26:07;97409.94;;;5.42;100.00
18509;BME280;9383;50.928;12.116;2022-09-29T04:28:35;97420.31;;;5.45;100.00
18509;BME280;9383;50.928;12.116;2022-09-29T04:31:02;97415.00;;;5.46;100.00
18509;BME280;9383;50.928;12.116;2022-09-29T04:33:28;97368.34;;;5.07;100.00
18509;BME280;9383;50.928;12.116;2022-09-29T04:35:58;97420.38;;;5.43;100.00
18509;BME280;9383;50.928;12.116;2022-09-29T04:38:25;97420.00;;;5.53;100.00
18509;BME280;9383;50.928;12.116;2022-09-29T04:40:52;97343.09;;;5.03;100.00
18509;BME280;9383;50.928;12.116;2022-09-29T04:43:18;97289.66;;;4.82;100.00
18509;BME280;9383;50.928;12.116;2022-09-29T04:45:44;97296.56;;;4.84;100.00
18509;BME280;9383;50.928;12.116;2022-09-29T04:48:12;97371.78;;;5.31;100.00
18509;BME280;9383;50.928;12.116;2022-09-29T04:50:39;97418.75;;;5.63;100.00
18509;BME280;9383;50.928;12.116;2022-09-29T04:53:07;97415.19;;;5.64;100.00
18509;BME280;9383;50.928;12.116;2022-09-29T04:55:35;97414.28;;;5.65;100.00
18509;BME280;9383;50.928;12.116;2022-09-29T04:58:01;97340.78;;;5.17;100.00
18509;BME280;9383;50.928;12.116;2022-09-29T05:00:28;97325.41;;;5.08;100.00
18509;BME280;9383;50.928;12.116;2022-09-29T05:02:54;97341.66;;;5.18;100.00
18509;BME280;9383;50.928;12.116;2022-09-29T05:05:20;97342.41;;;5.21;100.00
18509;BME280;9383;50.928;12.116;2022-09-29T05:07:46;97310.00;;;4.99;100.00
18509;BME280;9383;50.928;12.116;2022-09-29T05:10:14;97338.72;;;5.26;100.00
18509;BME280;9383;50.928;12.116;2022-09-29T05:12:41;97415.63;;;5.75;100.00
18509;BME280;9383;50.928;12.116;2022-09-29T05:15:12;97326.69;;;5.20;100.00
18509;BME280;9383;50.928;12.116;2022-09-29T05:17:38;97291.78;;;4.94;100.00
18509;BME280;9383;50.928;12.116;2022-09-29T05:20:05;97337.75;;;5.28;100.00
18509;BME280;9383;50.928;12.116;2022-09-29T05:22:31;97401.69;;;5.73;100.00
18509;BME280;9383;50.928;12.116;2022-09-29T05:24:57;97353.81;;;5.43;100.00
18509;BME280;9383;50.928;12.116;2022-09-29T05:27:24;97300.06;;;5.07;100.00
18509;BME280;9383;50.928;12.116;2022-09-29T05:29:50;97335.25;;;5.25;100.00
18509;BME280;9383;50.928;12.116;2022-09-29T05:32:17;97329.25;;;5.21;100.00
18509;BME280;9383;50.928;12.116;2022-09-29T05:34:43;97365.75;;;5.52;100.00
18509;BME280;9383;50.928;12.116;2022-09-29T05:37:10;97309.28;;;5.17;100.00
18509;BME280;9383;50.928;12.116;2022-09-29T05:39:36;97412.75;;;5.82;100.00
18509;BME280;9383;50.928;12.116;2022-09-29T05:42:10;97415.31;;;5.83;100.00
18509;BME280;9383;50.928;12.116;2022-09-29T05:44:37;97363.47;;;5.42;100.00
18509;BME280;9383;50.928;12.116;2022-09-29T05:47:03;97380.66;;;5.51;100.00
18509;BME280;9383;50.928;12.116;2022-09-29T05:49:30;97422.34;;;5.83;100.00
18509;BME280;9383;50.928;12.116;2022-09-29T05:51:58;97417.94;;;5.83;100.00
18509;BME280;9383;50.928;12.116;2022-09-29T05:54:25;97388.25;;;5.59;100.00
18509;BME280;9383;50.928;12.116;2022-09-29T05:56:53;97376.13;;;5.55;100.00
18509;BME280;9383;50.928;12.116;2022-09-29T05:59:20;97430.03;;;5.87;100.00
18509;BME280;9383;50.928;12.116;2022-09-29T06:01:46;97422.97;;;5.89;100.00
18509;BME280;9383;50.928;12.116;2022-09-29T06:04:13;97428.13;;;5.91;100.00
18509;BME280;9383;50.928;12.116;2022-09-29T06:06:39;97306.53;;;5.20;100.00
18509;BME280;9383;50.928;12.116;2022-09-29T06:09:06;97416.59;;;5.95;100.00
18509;BME280;9383;50.928;12.116;2022-09-29T06:11:33;97336.22;;;5.45;100.00
18509;BME280;9383;50.928;12.116;2022-09-29T06:14:01;97315.09;;;5.26;100.00
18509;BME280;9383;50.928;12.116;2022-09-29T06:16:30;97359.97;;;5.64;100.00
18509;BME280;9383;50.928;12.116;2022-09-29T06:19:00;97386.34;;;5.85;100.00
18509;BME280;9383;50.928;12.116;2022-09-29T06:21:28;97342.78;;;5.57;100.00
18509;BME280;9383;50.928;12.116;2022-09-29T06:23:56;97301.59;;;5.35;100.00
18509;BME280;9383;50.928;12.116;2022-09-29T06:26:25;97431.69;;;6.12;100.00
18509;BME280;9383;50.928;12.116;2022-09-29T06:28:53;97429.00;;;6.14;100.00
18509;BME280;9383;50.928;12.116;2022-09-29T06:31:24;97334.03;;;5.56;100.00
18509;BME280;9383;50.928;12.116;2022-09-29T06:33:51;97423.69;;;6.15;100.00
18509;BME280;9383;50.928;12.116;2022-09-29T06:36:18;97430.16;;;6.29;100.00
18509;BME280;9383;50.928;12.116;2022-09-29T06:39:07;97429.97;;;6.33;100.00
18509;BME280;9383;50.928;12.116;2022-09-29T06:41:33;97359.56;;;5.96;100.00
18509;BME280;9383;50.928;12.116;2022-09-29T06:44:01;97314.47;;;5.84;100.00
18509;BME280;9383;50.928;12.116;2022-09-29T06:46:29;97364.81;;;6.18;100.00
18509;BME280;9383;50.928;12.116;2022-09-29T06:48:57;97432.59;;;6.75;100.00
18509;BME280;9383;50.928;12.116;2022-09-29T06:51:24;97426.03;;;6.84;100.00
18509;BME280;9383;50.928;12.116;2022-09-29T06:53:55;97364.88;;;6.37;100.00
18509;BME280;9383;50.928;12.116;2022-09-29T06:56:21;97433.25;;;6.99;100.00
18509;BME280;9383;50.928;12.116;2022-09-29T06:58:48;97435.53;;;7.07;100.00
18509;BME280;9383;50.928;12.116;2022-09-29T07:01:14;97373.88;;;6.73;100.00
18509;BME280;9383;50.928;12.116;2022-09-29T07:03:41;97440.06;;;7.24;100.00
18509;BME280;9383;50.928;12.116;2022-09-29T07:06:09;97334.00;;;6.61;100.00
18509;BME280;9383;50.928;12.116;2022-09-29T07:08:37;97322.25;;;6.69;100.00
18509;BME280;9383;50.928;12.116;2022-09-29T07:11:09;97393.63;;;7.22;100.00
18509;BME280;9383;50.928;12.116;2022-09-29T07:13:36;97350.91;;;6.96;100.00
18509;BME280;9383;50.928;12.116;2022-09-29T07:16:08;97428.81;;;7.59;100.00
18509;BME280;9383;50.928;12.116;2022-09-29T07:18:38;97333.72;;;7.06;100.00
18509;BME280;9383;50.928;12.116;2022-09-29T07:21:11;97360.06;;;7.25;100.00
18509;BME280;9383;50.928;12.116;2022-09-29T07:23:38;97361.69;;;7.28;100.00
18509;BME280;9383;50.928;12.116;2022-09-29T07:26:06;97432.91;;;7.84;100.00
18509;BME280;9383;50.928;12.116;2022-09-29T07:28:32;97443.16;;;7.90;100.00
18509;BME280;9383;50.928;12.116;2022-09-29T07:31:15;97433.22;;;7.95;100.00
18509;BME280;9383;50.928;12.116;2022-09-29T07:33:43;97377.84;;;7.58;100.00
18509;BME280;9383;50.928;12.116;2022-09-29T07:36:10;97443.03;;;8.11;100.00
18509;BME280;9383;50.928;12.116;2022-09-29T07:38:38;97446.16;;;8.19;100.00
18509;BME280;9383;50.928;12.116;2022-09-29T07:41:09;97427.81;;;8.16;100.00
18509;BME280;9383;50.928;12.116;2022-09-29T07:43:38;97448.72;;;8.38;100.00
18509;BME280;9383;50.928;12.116;2022-09-29T07:46:05;97456.97;;;8.50;100.00
18509;BME280;9383;50.928;12.116;2022-09-29T07:48:34;97455.59;;;8.60;100.00
18509;BME280;9383;50.928;12.116;2022-09-29T07:51:02;97461.19;;;8.71;100.00
18509;BME280;9383;50.928;12.116;2022-09-29T07:53:32;97313.88;;;7.90;100.00
18509;BME280;9383;50.928;12.116;2022-09-29T07:56:08;97372.53;;;8.30;100.00
18509;BME280;9383;50.928;12.116;2022-09-29T07:58:36;97334.34;;;8.20;100.00
18509;BME280;9383;50.928;12.116;2022-09-29T08:01:06;97420.91;;;8.84;100.00
18509;BME280;9383;50.928;12.116;2022-09-29T08:03:37;97314.31;;;8.34;100.00
18509;BME280;9383;50.928;12.116;2022-09-29T08:06:05;97465.19;;;9.30;100.00
18509;BME280;9383;50.928;12.116;2022-09-29T08:08:37;97465.47;;;9.41;100.00
18509;BME280;9383;50.928;12.116;2022-09-29T08:11:15;97466.69;;;9.52;100.00
18509;BME280;9383;50.928;12.116;2022-09-29T08:13:43;97470.44;;;9.64;100.00
18509;BME280;9383;50.928;12.116;2022-09-29T08:16:12;97463.78;;;9.73;100.00
18509;BME280;9383;50.928;12.116;2022-09-29T08:18:50;97473.09;;;9.80;100.00
18509;BME280;9383;50.928;12.116;2022-09-29T08:21:17;97472.66;;;9.88;100.00
18509;BME280;9383;50.928;12.116;2022-09-29T08:23:43;97469.50;;;9.97;100.00
18509;BME280;9383;50.928;12.116;2022-09-29T08:26:13;97394.66;;;9.47;100.00
18509;BME280;9383;50.928;12.116;2022-09-29T08:28:41;97472.91;;;10.15;100.00
18509;BME280;9383;50.928;12.116;2022-09-29T08:31:19;97326.44;;;9.21;100.00
18509;BME280;9383;50.928;12.116;2022-09-29T08:33:51;97481.59;;;10.33;100.00
18509;BME280;9383;50.928;12.116;2022-09-29T08:36:18;97485.44;;;10.44;100.00
18509;BME280;9383;50.928;12.116;2022-09-29T08:38:51;97290.34;;;9.36;100.00
18509;BME280;9383;50.928;12.116;2022-09-29T08:41:37;97481.44;;;10.67;100.00
18509;BME280;9383;50.928;12.116;2022-09-29T08:44:15;97490.38;;;10.80;100.00
18509;BME280;9383;50.928;12.116;2022-09-29T08:46:51;97491.63;;;10.89;100.00
18509;BME280;9383;50.928;12.116;2022-09-29T08:49:41;97489.19;;;11.01;100.00
18509;BME280;9383;50.928;12.116;2022-09-29T08:52:38;97374.28;;;10.26;97.50
18509;BME280;9383;50.928;12.116;2022-09-29T08:57:34;97504.75;;;11.21;96.16
18509;BME280;9383;50.928;12.116;2022-09-29T09:00:10;97449.88;;;10.93;94.29
18509;BME280;9383;50.928;12.116;2022-09-29T09:16:04;97472.63;;;11.55;89.64
18509;BME280;9383;50.928;12.116;2022-09-29T09:22:28;97510.66;;;11.98;87.80
18509;BME280;9383;50.928;12.116;2022-09-29T09:25:18;97518.16;;;12.05;85.63
18509;BME280;9383;50.928;12.116;2022-09-29T09:28:02;97483.19;;;11.84;82.56
18509;BME280;9383;50.928;12.116;2022-09-29T09:30:38;97519.19;;;12.17;83.00
18509;BME280;9383;50.928;12.116;2022-09-29T09:33:17;97525.06;;;12.22;82.89
18509;BME280;9383;50.928;12.116;2022-09-29T09:35:54;97458.16;;;11.88;83.35
18509;BME280;9383;50.928;12.116;2022-09-29T09:38:27;97513.13;;;12.43;84.46
18509;BME280;9383;50.928;12.116;2022-09-29T09:41:19;97505.72;;;12.48;81.28
18509;BME280;9383;50.928;12.116;2022-09-29T09:44:39;97510.09;;;12.62;82.23
18509;BME280;9383;50.928;12.116;2022-09-29T09:46:51;97411.75;;;12.08;82.74
18509;BME280;9383;50.928;12.116;2022-09-29T09:49:31;97514.19;;;12.80;81.80
18509;BME280;9383;50.928;12.116;2022-09-29T09:54:52;97503.25;;;12.85;79.71
18509;BME280;9383;50.928;12.116;2022-09-29T10:02:45;97385.00;;;12.24;75.21
18509;BME280;9383;50.928;12.116;2022-09-29T10:05:43;97511.91;;;13.15;77.79
18509;BME280;9383;50.928;12.116;2022-09-29T10:08:48;97315.06;;;12.11;78.69
18509;BME280;9383;50.928;12.116;2022-09-29T10:11:24;97507.44;;;13.41;76.18
18509;BME280;9383;50.928;12.116;2022-09-29T10:14:27;97428.88;;;13.09;76.18
18509;BME280;9383;50.928;12.116;2022-09-29T10:16:56;97508.22;;;13.56;73.80
18509;BME280;9383;50.928;12.116;2022-09-29T10:22:49;97498.25;;;13.84;76.60
18509;BME280;9383;50.928;12.116;2022-09-29T10:25:23;97496.63;;;13.95;73.52
18509;BME280;9383;50.928;12.116;2022-09-29T10:27:52;97499.69;;;14.01;72.00
18509;BME280;9383;50.928;12.116;2022-09-29T10:30:30;97498.84;;;14.01;70.18
18509;BME280;9383;50.928;12.116;2022-09-29T10:33:01;97497.94;;;14.13;72.21
18509;BME280;9383;50.928;12.116;2022-09-29T10:35:40;97326.84;;;13.11;72.62
18509;BME280;9383;50.928;12.116;2022-09-29T10:41:05;97473.00;;;14.14;72.60
18509;BME280;9383;50.928;12.116;2022-09-29T10:43:40;97502.28;;;14.27;73.35
18509;BME280;9383;50.928;12.116;2022-09-29T10:49:20;97499.44;;;14.17;73.68
18509;BME280;9383;50.928;12.116;2022-09-29T10:52:04;97497.66;;;14.05;72.92
18509;BME280;9383;50.928;12.116;2022-09-29T10:54:35;97467.41;;;13.69;72.23
18509;BME280;9383;50.928;12.116;2022-09-29T10:57:14;97517.53;;;13.88;72.85
18509;BME280;9383;50.928;12.116;2022-09-29T10:59:50;97510.22;;;13.66;71.62
18509;BME280;9383;50.928;12.116;2022-09-29T11:02:36;97479.97;;;13.41;72.49
18509;BME280;9383;50.928;12.116;2022-09-29T11:05:18;97525.25;;;13.67;73.09
18509;BME280;9383;50.928;12.116;2022-09-29T11:07:47;97521.81;;;13.64;72.96
18509;BME280;9383;50.928;12.116;2022-09-29T11:10:34;97530.34;;;13.57;73.23
18509;BME280;9383;50.928;12.116;2022-09-29T11:13:35;97460.06;;;13.07;72.61
18509;BME280;9383;50.928;12.116;2022-09-29T11:16:32;97485.94;;;13.18;73.83
18509;BME280;9383;50.928;12.116;2022-09-29T11:19:11;97484.22;;;13.17;73.17
18509;BME280;9383;50.928;12.116;2022-09-29T11:25:13;97526.50;;;13.48;73.45
18509;BME280;9383;50.928;12.116;2022-09-29T11:31:22;97526.41;;;13.49;73.41
18509;BME280;9383;50.928;12.116;2022-09-29T11:34:37;97533.44;;;13.50;73.97
18509;BME280;9383;50.928;12.116;2022-09-29T11:37:44;97496.25;;;13.23;72.74
18509;BME280;9383;50.928;12.116;2022-09-29T11:40:48;97543.84;;;13.41;73.10
18509;BME280;9383;50.928;12.116;2022-09-29T11:43:55;97503.72;;;13.18;73.75
18509;BME280;9383;50.928;12.116;2022-09-29T11:46:48;97535.22;;;13.37;73.20
18509;BME280;9383;50.928;12.116;2022-09-29T12:09:20;97546.97;;;13.60;75.00
18509;BME280;9383;50.928;12.116;2022-09-29T12:18:41;97487.41;;;13.35;73.83
18509;BME280;9383;50.928;12.116;2022-09-29T12:21:12;97448.81;;;13.17;73.14
18509;BME280;9383;50.928;12.116;2022-09-29T12:23:43;97410.38;;;12.82;71.93
18509;BME280;9383;50.928;12.116;2022-09-29T12:26:19;97550.69;;;13.71;72.76
18509;BME280;9383;50.928;12.116;2022-09-29T12:28:57;97435.50;;;12.91;71.53
18509;BME280;9383;50.928;12.116;2022-09-29T12:31:38;97540.34;;;13.66;71.24
18509;BME280;9383;50.928;12.116;2022-09-29T12:40:18;97556.34;;;13.79;72.27
18509;BME280;9383;50.928;12.116;2022-09-29T12:43:29;97382.31;;;12.78;71.02
18509;BME280;9383;50.928;12.116;2022-09-29T12:46:16;97549.81;;;13.83;70.23
18509;BME280;9383;50.928;12.116;2022-09-29T12:49:00;97560.69;;;13.80;68.86
18509;BME280;9383;50.928;12.116;2022-09-29T12:54:31;97547.28;;;13.69;69.45
18509;BME280;9383;50.928;12.116;2022-09-29T12:57:10;97479.97;;;13.28;70.20
18509;BME280;9383;50.928;12.116;2022-09-29T13:00:00;97559.31;;;13.74;70.38
18509;BME280;9383;50.928;12.116;2022-09-29T13:03:13;97504.66;;;13.43;70.46
18509;BME280;9383;50.928;12.116;2022-09-29T13:09:04;97516.59;;;13.37;69.51
18509;BME280;9383;50.928;12.116;2022-09-29T13:23:22;97563.03;;;13.46;69.96
18509;BME280;9383;50.928;12.116;2022-09-29T13:28:58;97506.78;;;12.99;69.81
18509;BME280;9383;50.928;12.116;2022-09-29T13:31:30;97572.38;;;13.39;70.39
18509;BME280;9383;50.928;12.116;2022-09-29T13:34:02;97491.88;;;12.96;71.14
18509;BME280;9383;50.928;12.116;2022-09-29T13:36:39;97515.19;;;13.05;71.56
18509;BME280;9383;50.928;12.116;2022-09-29T13:39:25;97452.69;;;12.72;71.43
18509;BME280;9383;50.928;12.116;2022-09-29T13:41:53;97545.44;;;13.30;71.11
18509;BME280;9383;50.928;12.116;2022-09-29T13:44:26;97579.34;;;13.54;71.88
18509;BME280;9383;50.928;12.116;2022-09-29T13:47:32;97578.16;;;13.58;72.99
18509;BME280;9383;50.928;12.116;2022-09-29T13:58:35;97583.06;;;13.52;74.82
18509;BME280;9383;50.928;12.116;2022-09-29T14:01:07;97593.19;;;13.46;75.47
18509;BME280;9383;50.928;12.116;2022-09-29T14:03:41;97523.78;;;12.96;75.81
18509;BME280;9383;50.928;12.116;2022-09-29T14:06:25;97550.63;;;13.06;76.42
18509;BME280;9383;50.928;12.116;2022-09-29T14:09:18;97585.34;;;13.17;76.76
18509;BME280;9383;50.928;12.116;2022-09-29T14:11:50;97519.28;;;12.71;77.93
18509;BME280;9383;50.928;12.116;2022-09-29T14:14:36;97552.25;;;12.81;78.65
18509;BME280;9383;50.928;12.116;2022-09-29T14:17:17;97607.00;;;12.98;79.65
18509;BME280;9383;50.928;12.116;2022-09-29T14:20:27;97508.72;;;12.29;79.46
18509;BME280;9383;50.928;12.116;2022-09-29T14:23:05;97533.78;;;12.24;79.64
18509;BME280;9383;50.928;12.116;2022-09-29T14:25:49;97565.41;;;12.15;78.51
18509;BME280;9383;50.928;12.116;2022-09-29T14:28:25;97527.38;;;11.71;78.77
18509;BME280;9383;50.928;12.116;2022-09-29T14:30:59;97534.22;;;11.46;76.54
18509;BME280;9383;50.928;12.116;2022-09-29T14:33:38;97559.78;;;11.32;77.36
18509;BME280;9383;50.928;12.116;2022-09-29T14:36:19;97549.94;;;10.89;78.48
18509;BME280;9383;50.928;12.116;2022-09-29T14:38:50;97617.25;;;11.17;80.12
18509;BME280;9383;50.928;12.116;2022-09-29T14:41:28;97622.88;;;10.96;81.75
18509;BME280;9383;50.928;12.116;2022-09-29T14:47:18;97574.72;;;10.41;84.32
18509;BME280;9383;50.928;12.116;2022-09-29T14:50:40;97557.53;;;10.33;85.38
18509;BME280;9383;50.928;12.116;2022-09-29T14:56:44;97586.78;;;10.31;86.08
18509;BME280;9383;50.928;12.116;2022-09-29T14:59:43;97589.31;;;10.33;86.14
18509;BME280;9383;50.928;12.116;2022-09-29T15:02:19;97650.34;;;10.79;86.24
18509;BME280;9383;50.928;12.116;2022-09-29T15:04:47;97583.00;;;10.35;86.84
18509;BME280;9383;50.928;12.116;2022-09-29T15:07:20;97637.44;;;10.73;87.13
18509;BME280;9383;50.928;12.116;2022-09-29T15:09:58;97645.25;;;10.76;87.13
18509;BME280;9383;50.928;12.116;2022-09-29T15:12:31;97611.56;;;10.46;87.31
18509;BME280;9383;50.928;12.116;2022-09-29T15:14:58;97647.97;;;10.75;87.78
18509;BME280;9383;50.928;12.116;2022-09-29T15:17:44;97641.38;;;10.82;87.40
18509;BME280;9383;50.928;12.116;2022-09-29T15:20:31;97647.19;;;10.89;87.69
18509;BME280;9383;50.928;12.116;2022-09-29T15:25:57;97578.75;;;10.65;87.74
18509;BME280;9383;50.928;12.116;2022-09-29T15:28:36;97642.78;;;11.04;87.92
18509;BME280;9383;50.928;12.116;2022-09-29T15:31:08;97578.38;;;10.71;88.13
18509;BME280;9383;50.928;12.116;2022-09-29T15:33:38;97554.66;;;10.53;88.48
18509;BME280;9383;50.928;12.116;2022-09-29T15:36:17;97661.91;;;11.25;89.04
18509;BME280;9383;50.928;12.116;2022-09-29T15:38:47;97667.03;;;11.28;89.40
18509;BME280;9383;50.928;12.116;2022-09-29T15:41:18;97673.03;;;11.32;89.59
18509;BME280;9383;50.928;12.116;2022-09-29T15:44:02;97589.03;;;10.86;89.70
18509;BME280;9383;50.928;12.116;2022-09-29T15:51:30;97601.75;;;10.95;89.78
18509;BME280;9383;50.928;12.116;2022-09-29T15:53:57;97586.09;;;10.90;90.21
18509;BME280;9383;50.928;12.116;2022-09-29T15:56:25;97672.47;;;11.41;90.40
18509;BME280;9383;50.928;12.116;2022-09-29T15:58:52;97621.91;;;11.14;90.91
18509;BME280;9383;50.928;12.116;2022-09-29T16:01:19;97638.31;;;11.20;90.74
18509;BME280;9383;50.928;12.116;2022-09-29T16:03:58;97634.53;;;11.24;91.10
18509;BME280;9383;50.928;12.116;2022-09-29T16:06:32;97691.06;;;11.56;91.10
18509;BME280;9383;50.928;12.116;2022-09-29T16:09:12;97640.84;;;11.22;91.40